createdAt,value
2018-04-14T04:01:52.046Z,50.70
2018-04-14T04:04:18.261Z,50.50
2018-04-14T04:06:44.540Z,50.30
2018-04-14T04:09:10.808Z,50.30
2018-04-14T04:11:37.046Z,50.50
2018-04-14T04:14:03.967Z,50.00
2018-04-14T04:16:30.215Z,50.50
2018-04-14T04:18:56.504Z,50.10
2018-04-14T04:21:22.725Z,50.40
2018-04-14T04:23:48.962Z,50.50
2018-04-14T04:26:15.236Z,50.50
2018-04-14T04:28:41.493Z,50.30
2018-04-14T04:31:07.714Z,50.50
2018-04-14T04:33:33.974Z,50.50
2018-04-14T04:36:00.219Z,50.30
2018-04-14T04:38:26.474Z,50.10
2018-04-14T04:40:52.734Z,50.30
2018-04-14T04:43:18.988Z,50.50
2018-04-14T04:45:45.232Z,50.60
2018-04-14T04:48:11.493Z,51.50
2018-04-14T04:50:37.737Z,50.60
2018-04-14T04:53:04.177Z,50.90
2018-04-14T04:55:30.396Z,50.50
2018-04-14T04:57:56.622Z,50.50
2018-04-14T05:00:22.882Z,50.50
2018-04-14T05:02:49.395Z,50.40
2018-04-14T05:05:16.018Z,50.60
2018-04-14T05:07:42.274Z,50.60
2018-04-14T05:10:09.289Z,50.90
2018-04-14T05:12:35.899Z,50.90
2018-04-14T05:15:02.134Z,51.10
2018-04-14T05:17:28.372Z,50.60
2018-04-14T05:19:54.617Z,50.60
2018-04-14T05:22:21.081Z,51.00
2018-04-14T05:24:47.332Z,51.10
2018-04-14T05:27:13.571Z,50.60
2018-04-14T05:29:39.820Z,50.90
2018-04-14T05:32:06.061Z,50.80
2018-04-14T05:34:32.286Z,50.60
2018-04-14T05:36:58.559Z,50.20
2018-04-14T05:39:24.772Z,50.60
2018-04-14T05:41:51.053Z,50.30
2018-04-14T05:44:17.918Z,50.30
2018-04-14T05:46:44.157Z,50.30
2018-04-14T05:49:10.445Z,50.30
2018-04-14T05:51:36.688Z,50.20
2018-04-14T05:54:02.933Z,50.00
2018-04-14T05:56:29.168Z,49.90
2018-04-14T05:58:55.393Z,50.10
2018-04-14T06:01:21.660Z,50.70
2018-04-14T06:03:47.896Z,50.20
2018-04-14T06:06:14.145Z,49.90
2018-04-14T06:08:40.382Z,49.80
2018-04-14T06:11:06.633Z,50.10
2018-04-14T06:13:32.884Z,49.80
2018-04-14T06:15:59.134Z,49.80
2018-04-14T06:18:25.545Z,49.80
2018-04-14T06:20:52.562Z,50.60
2018-04-14T06:23:18.798Z,50.50
2018-04-14T06:25:45.055Z,50.20
2018-04-14T06:28:11.318Z,50.50
2018-04-14T06:30:37.575Z,50.80
2018-04-14T06:33:04.545Z,50.50
2018-04-14T06:35:30.791Z,50.60
2018-04-14T06:37:57.068Z,50.70
2018-04-14T06:40:23.295Z,50.40
2018-04-14T06:42:50.310Z,50.60
2018-04-14T06:45:16.561Z,50.60
2018-04-14T06:47:42.816Z,51.20
2018-04-14T06:50:09.130Z,50.70
2018-04-14T06:52:36.181Z,50.70
2018-04-14T06:55:02.406Z,50.60
2018-04-14T06:57:28.628Z,50.40
2018-04-14T06:59:54.873Z,50.70
2018-04-14T07:02:21.170Z,50.70
2018-04-14T07:04:47.418Z,50.80
2018-04-14T07:07:13.641Z,50.80
2018-04-14T07:09:40.486Z,50.60
2018-04-14T07:12:06.725Z,50.70
2018-04-14T07:14:33.023Z,50.60
2018-04-14T07:16:59.243Z,50.50
2018-04-14T07:19:25.462Z,50.40
2018-04-14T07:21:52.521Z,51.20
2018-04-14T07:24:18.749Z,50.70
2018-04-14T07:26:45.714Z,50.50
2018-04-14T07:29:11.969Z,50.40
2018-04-14T07:31:38.229Z,50.30
2018-04-14T07:34:04.462Z,50.80
2018-04-14T07:36:31.105Z,50.70
2018-04-14T07:38:57.412Z,50.30
2018-04-14T07:41:23.647Z,49.80
2018-04-14T07:43:49.895Z,48.90
2018-04-14T07:46:16.909Z,49.10
2018-04-14T07:48:43.137Z,49.10
2018-04-14T07:51:09.398Z,48.70
2018-04-14T07:53:35.629Z,48.30
2018-04-14T07:56:01.864Z,47.70
2018-04-14T07:58:29.164Z,46.90
2018-04-14T08:00:55.430Z,47.10
2018-04-14T08:03:21.716Z,47.10
2018-04-14T08:05:48.720Z,46.70
2018-04-14T08:08:14.947Z,46.70
2018-04-14T08:10:41.292Z,46.80
2018-04-14T08:13:07.525Z,46.60
2018-04-14T08:15:33.786Z,46.10
2018-04-14T08:18:00.629Z,46.00
2018-04-14T08:20:26.862Z,45.80
2018-04-14T08:22:53.086Z,45.90
2018-04-14T08:25:19.328Z,46.70
2018-04-14T08:27:45.617Z,46.50
2018-04-14T08:30:11.844Z,46.00
2018-04-14T08:32:38.082Z,45.80
2018-04-14T08:35:04.319Z,46.00
2018-04-14T08:37:30.594Z,46.00
2018-04-14T08:39:56.884Z,45.60
2018-04-14T08:42:23.132Z,45.70
2018-04-14T08:44:49.373Z,45.70
2018-04-14T08:47:15.609Z,45.90
2018-04-14T08:49:41.853Z,45.90
2018-04-14T08:52:08.126Z,45.50
2018-04-14T08:54:34.347Z,46.00
2018-04-14T08:57:00.614Z,46.10
2018-04-14T08:59:27.610Z,46.00
2018-04-14T09:01:54.629Z,46.00
2018-04-14T09:04:20.898Z,46.30
2018-04-14T09:06:47.129Z,46.10
2018-04-14T09:09:13.749Z,46.20
2018-04-14T09:11:40.006Z,46.40
2018-04-14T09:14:06.976Z,47.00
2018-04-14T09:16:33.229Z,46.30
2018-04-14T09:18:59.494Z,46.60
2018-04-14T09:21:25.755Z,46.30
2018-04-14T09:23:52.709Z,46.20
2018-04-14T09:26:18.934Z,46.20
2018-04-14T09:28:45.190Z,46.20
2018-04-14T09:31:11.413Z,46.20
2018-04-14T09:33:37.676Z,46.20
2018-04-14T09:36:03.925Z,46.30
2018-04-14T09:38:30.343Z,46.20
2018-04-14T09:40:57.209Z,46.80
2018-04-14T09:43:23.649Z,46.30
2018-04-14T09:45:50.631Z,46.50
2018-04-14T09:48:16.921Z,46.40
2018-04-14T09:50:43.144Z,46.70
2018-04-14T09:53:09.698Z,46.60
2018-04-14T09:55:36.528Z,46.60
2018-04-14T09:58:03.388Z,46.80
2018-04-14T10:00:29.655Z,46.60
2018-04-14T10:02:55.932Z,46.60
2018-04-14T10:05:22.807Z,46.60
2018-04-14T10:07:49.027Z,46.60
2018-04-14T10:10:15.264Z,46.60
2018-04-14T10:12:41.482Z,46.70
2018-04-14T10:15:07.733Z,46.70
2018-04-14T10:17:34.000Z,46.80
2018-04-14T10:20:00.242Z,46.70
2018-04-14T10:22:26.481Z,46.70
2018-04-14T10:24:52.700Z,46.80
2018-04-14T10:27:18.937Z,46.90
2018-04-14T10:29:45.189Z,46.90
2018-04-14T10:32:11.429Z,46.80
2018-04-14T10:34:37.645Z,46.90
2018-04-14T10:37:03.925Z,46.80
2018-04-14T10:39:30.151Z,46.80
2018-04-14T10:41:56.406Z,46.90
2018-04-14T10:44:22.665Z,46.90
2018-04-14T10:46:48.906Z,46.90
2018-04-14T10:49:15.135Z,47.00
2018-04-14T10:51:41.374Z,46.80
2018-04-14T10:54:07.652Z,46.80
2018-04-14T10:56:34.641Z,47.30
2018-04-14T10:59:00.883Z,47.20
2018-04-14T11:01:27.102Z,47.10
2018-04-14T11:03:53.397Z,47.20
2018-04-14T11:06:19.733Z,47.30
2018-04-14T11:08:45.982Z,47.20
2018-04-14T11:11:12.982Z,47.10
2018-04-14T11:13:39.233Z,47.00
2018-04-14T11:16:05.558Z,47.20
2018-04-14T11:18:31.821Z,47.30
2018-04-14T11:20:58.062Z,47.30
2018-04-14T11:23:24.301Z,47.20
2018-04-14T11:25:51.291Z,47.20
2018-04-14T11:28:17.522Z,47.10
2018-04-14T11:30:43.778Z,47.10
2018-04-14T11:33:09.993Z,47.20
2018-04-14T11:35:36.242Z,47.20
2018-04-14T11:38:02.492Z,47.10
2018-04-14T11:40:28.713Z,47.20
2018-04-14T11:42:54.999Z,47.20
2018-04-14T11:45:21.217Z,47.20
2018-04-14T11:47:47.456Z,47.20
2018-04-14T11:50:14.344Z,47.30
2018-04-14T11:52:40.622Z,47.30
2018-04-14T11:55:06.900Z,47.30
2018-04-14T11:57:33.180Z,47.30
2018-04-14T11:59:59.414Z,47.20
2018-04-14T12:02:25.662Z,47.30
2018-04-14T12:04:51.910Z,47.20
2018-04-14T12:07:18.497Z,47.20
2018-04-14T12:09:44.748Z,47.20
2018-04-14T12:12:10.997Z,47.20
2018-04-14T12:14:37.222Z,47.20
2018-04-14T12:17:03.467Z,47.20
2018-04-14T12:19:30.589Z,47.20
2018-04-14T12:21:56.846Z,47.20
2018-04-14T12:24:23.073Z,47.20
2018-04-14T12:26:49.321Z,47.20
2018-04-14T12:29:15.834Z,47.20
2018-04-14T12:31:42.093Z,47.20
2018-04-14T12:34:08.333Z,47.20
2018-04-14T12:36:34.585Z,47.20
2018-04-14T12:39:00.807Z,47.20
2018-04-14T12:41:27.065Z,47.20
2018-04-14T12:43:53.345Z,47.20
2018-04-14T12:46:19.591Z,47.10
2018-04-14T12:48:45.836Z,47.10
2018-04-14T12:51:12.061Z,47.20
2018-04-14T12:53:38.294Z,47.10
2018-04-14T12:56:04.574Z,47.10
2018-04-14T12:58:30.852Z,47.10
2018-04-14T13:00:57.073Z,47.10
2018-04-14T13:03:23.357Z,47.10
2018-04-14T13:05:49.604Z,47.10
2018-04-14T13:08:15.864Z,47.10
2018-04-14T13:10:42.396Z,47.10
2018-04-14T13:13:08.621Z,47.10
2018-04-14T13:15:34.954Z,47.10
2018-04-14T13:18:01.183Z,47.10
2018-04-14T13:20:27.483Z,47.10
2018-04-14T13:22:53.714Z,47.10
2018-04-14T13:25:19.925Z,47.10
2018-04-14T13:27:46.151Z,47.10
2018-04-14T13:30:12.750Z,47.10
2018-04-14T13:32:39.036Z,47.10
2018-04-14T13:35:05.986Z,47.10
2018-04-14T13:37:32.234Z,47.10
2018-04-14T13:39:58.475Z,47.10
2018-04-14T13:42:24.710Z,47.00
2018-04-14T13:44:50.989Z,47.10
2018-04-14T13:47:17.270Z,47.10
2018-04-14T13:49:44.542Z,47.10
2018-04-14T13:52:11.608Z,47.00
2018-04-14T13:54:37.848Z,47.00
2018-04-14T13:57:04.121Z,47.10
2018-04-14T13:59:30.353Z,47.10
2018-04-14T14:01:56.597Z,47.00
2018-04-14T14:04:22.809Z,47.10
2018-04-14T14:06:49.040Z,47.20
2018-04-14T14:09:15.548Z,47.00
2018-04-14T14:11:41.766Z,47.00
2018-04-14T14:14:08.014Z,46.90
2018-04-14T14:16:34.997Z,47.10
2018-04-14T14:19:01.843Z,47.10
2018-04-14T14:21:28.073Z,47.20
2018-04-14T14:23:54.514Z,47.10
2018-04-14T14:26:20.740Z,47.20
2018-04-14T14:28:46.996Z,47.10
2018-04-14T14:31:13.223Z,47.30
2018-04-14T14:33:39.548Z,47.00
2018-04-14T14:36:05.807Z,47.00
2018-04-14T14:38:32.052Z,47.10
2018-04-14T14:40:58.319Z,47.70
2018-04-14T14:43:24.533Z,47.00
2018-04-14T14:45:50.784Z,47.20
2018-04-14T14:48:17.961Z,47.00
2018-04-14T14:50:44.198Z,47.00
2018-04-14T14:53:10.426Z,47.00
2018-04-14T14:55:36.696Z,47.00
2018-04-14T14:58:03.250Z,47.00
2018-04-14T15:00:29.521Z,47.00
2018-04-14T15:02:55.796Z,47.10
2018-04-14T15:05:22.514Z,47.10
2018-04-14T15:07:49.060Z,47.10
2018-04-14T15:10:15.289Z,47.10
2018-04-14T15:12:41.738Z,47.10
2018-04-14T15:15:08.017Z,47.10
2018-04-14T15:17:34.727Z,47.10
2018-04-14T15:20:00.956Z,47.10
2018-04-14T15:22:27.202Z,47.10
2018-04-14T15:24:53.444Z,47.20
2018-04-14T15:27:19.863Z,47.10
2018-04-14T15:29:46.102Z,47.10
2018-04-14T15:32:12.317Z,47.10
2018-04-14T15:34:39.510Z,47.10
2018-04-14T15:37:05.756Z,47.10
2018-04-14T15:39:32.012Z,47.10
2018-04-14T15:41:58.243Z,47.10
2018-04-14T15:44:24.504Z,47.00
2018-04-14T15:46:51.529Z,47.10
2018-04-14T15:49:17.754Z,47.10
2018-04-14T15:51:44.036Z,47.10
2018-04-14T15:54:10.266Z,47.10
2018-04-14T15:56:37.296Z,47.10
2018-04-14T15:59:04.325Z,47.10
2018-04-14T16:01:30.544Z,47.10
2018-04-14T16:03:57.449Z,47.10
2018-04-14T16:06:23.669Z,47.10
2018-04-14T16:08:49.904Z,47.10
2018-04-14T16:11:16.745Z,47.10
2018-04-14T16:13:42.977Z,47.10
2018-04-14T16:16:09.259Z,47.10
2018-04-14T16:18:35.483Z,47.10
2018-04-14T16:21:02.314Z,47.10
2018-04-14T16:23:29.349Z,47.70
2018-04-14T16:25:55.587Z,47.10
2018-04-14T16:28:21.865Z,47.10
2018-04-14T16:30:48.096Z,47.10
2018-04-14T16:33:14.437Z,47.10
2018-04-14T16:35:40.727Z,47.10
2018-04-14T16:38:06.966Z,47.10
2018-04-14T16:40:33.241Z,47.10
2018-04-14T16:42:59.469Z,47.10
2018-04-14T16:45:26.473Z,47.10
2018-04-14T16:47:52.721Z,47.10
2018-04-14T16:50:18.949Z,47.10
2018-04-14T16:52:45.523Z,47.10
2018-04-14T16:55:12.518Z,47.10
2018-04-14T16:57:38.777Z,47.10
2018-04-14T17:00:05.027Z,47.10
2018-04-14T17:02:31.285Z,47.10
2018-04-14T17:04:58.318Z,47.10
2018-04-14T17:07:25.349Z,47.10
2018-04-14T17:09:51.574Z,47.10
2018-04-14T17:12:17.816Z,47.10
2018-04-14T17:14:44.050Z,47.10
2018-04-14T17:17:10.333Z,47.10
2018-04-14T17:19:36.592Z,47.10
2018-04-14T17:22:02.891Z,47.10
2018-04-14T17:24:29.144Z,47.10
2018-04-14T17:26:55.389Z,47.10
2018-04-14T17:29:21.685Z,47.10
2018-04-14T17:31:49.009Z,47.10
2018-04-14T17:34:15.230Z,47.10
2018-04-14T17:36:41.909Z,47.10
2018-04-14T17:39:08.198Z,47.10
2018-04-14T17:41:34.470Z,47.10
2018-04-14T17:44:00.734Z,47.10
2018-04-14T17:46:27.756Z,47.10
2018-04-14T17:48:53.994Z,47.00
2018-04-14T17:51:20.751Z,47.10
2018-04-14T17:53:47.039Z,47.10
2018-04-14T17:56:13.295Z,47.10
2018-04-14T17:58:39.521Z,47.00
2018-04-14T18:01:05.750Z,47.00
2018-04-14T18:03:31.982Z,47.10
2018-04-14T18:05:58.235Z,47.10
2018-04-14T18:08:24.458Z,47.10
2018-04-14T18:10:50.690Z,47.00
2018-04-14T18:13:16.916Z,47.00
2018-04-14T18:15:43.161Z,47.00
2018-04-14T18:18:09.430Z,47.00
2018-04-14T18:20:35.666Z,47.00
2018-04-14T18:23:02.494Z,47.00
2018-04-14T18:25:28.755Z,47.00
2018-04-14T18:27:55.012Z,47.00
2018-04-14T18:30:22.055Z,47.00
2018-04-14T18:32:48.287Z,46.90
2018-04-14T18:35:14.510Z,46.50
2018-04-14T18:37:41.109Z,47.00
2018-04-14T18:40:07.358Z,46.90
2018-04-14T18:42:33.630Z,47.00
2018-04-14T18:44:59.858Z,47.00
2018-04-14T18:47:26.090Z,46.90
2018-04-14T18:49:52.342Z,46.90
2018-04-14T18:52:19.664Z,47.00
2018-04-14T18:54:45.929Z,47.00
2018-04-14T18:57:12.158Z,46.90
2018-04-14T18:59:38.410Z,46.90
2018-04-14T19:02:05.421Z,46.90
2018-04-14T19:04:31.655Z,46.90
2018-04-14T19:06:57.919Z,46.90
2018-04-14T19:09:24.164Z,46.90
2018-04-14T19:11:50.402Z,46.90
2018-04-14T19:14:16.652Z,46.90
2018-04-14T19:16:42.880Z,46.90
2018-04-14T19:19:09.902Z,46.90
2018-04-14T19:21:36.174Z,46.90
2018-04-14T19:24:02.416Z,46.90
2018-04-14T19:26:28.665Z,46.90
2018-04-14T19:28:54.897Z,46.90
2018-04-14T19:31:21.180Z,46.80
2018-04-14T19:33:47.436Z,47.50
2018-04-14T19:36:14.410Z,46.90
2018-04-14T19:38:40.657Z,46.90
2018-04-14T19:41:06.917Z,46.90
2018-04-14T19:43:33.225Z,46.90
2018-04-14T19:45:59.489Z,46.90
2018-04-14T19:48:25.753Z,46.90
2018-04-14T19:50:51.988Z,46.80
2018-04-14T19:53:18.248Z,46.90
2018-04-14T19:55:44.515Z,46.80
2018-04-14T19:58:10.766Z,46.80
2018-04-14T20:00:37.354Z,46.80
2018-04-14T20:03:04.528Z,46.80
2018-04-14T20:05:30.758Z,46.80
2018-04-14T20:07:57.030Z,46.80
2018-04-14T20:10:23.312Z,46.80
2018-04-14T20:12:49.562Z,46.80
2018-04-14T20:15:17.315Z,46.80
2018-04-14T20:17:43.541Z,46.80
2018-04-14T20:20:09.799Z,46.80
2018-04-14T20:22:36.047Z,46.80
2018-04-14T20:25:02.269Z,46.80
2018-04-14T20:27:28.494Z,46.80
2018-04-14T20:29:55.533Z,46.80
2018-04-14T20:32:21.952Z,46.80
2018-04-14T20:34:48.228Z,46.80
2018-04-14T20:37:14.522Z,46.80
2018-04-14T20:39:40.719Z,46.80
2018-04-14T20:42:06.959Z,46.80
2018-04-14T20:44:33.206Z,46.80
2018-04-14T20:46:59.440Z,46.80
2018-04-14T20:49:25.786Z,46.80
2018-04-14T20:51:52.014Z,46.80
2018-04-14T20:54:19.137Z,46.80
2018-04-14T20:56:45.455Z,46.80
2018-04-14T20:59:12.443Z,46.80
2018-04-14T21:01:38.702Z,46.70
2018-04-14T21:04:05.331Z,46.70
2018-04-14T21:06:31.805Z,46.80
2018-04-14T21:08:58.076Z,46.80
2018-04-14T21:11:24.313Z,46.80
2018-04-14T21:13:50.577Z,46.80
2018-04-14T21:16:16.822Z,46.80
2018-04-14T21:18:43.050Z,46.80
2018-04-14T21:21:09.324Z,46.80
2018-04-14T21:23:35.541Z,46.80
2018-04-14T21:26:01.826Z,46.70
2018-04-14T21:28:28.063Z,46.70
2018-04-14T21:30:54.329Z,46.70
2018-04-14T21:33:20.699Z,46.70
2018-04-14T21:35:46.950Z,46.70
2018-04-14T21:38:13.934Z,47.40
2018-04-14T21:40:40.772Z,46.70
2018-04-14T21:43:07.013Z,46.70
2018-04-14T21:45:33.308Z,46.80
2018-04-14T21:47:59.530Z,46.70
2018-04-14T21:50:26.527Z,46.20
2018-04-14T21:52:52.767Z,46.20
2018-04-14T21:55:18.978Z,46.10
2018-04-14T21:57:45.261Z,47.10
2018-04-14T22:00:11.483Z,47.70
2018-04-14T22:02:37.712Z,46.80
